Aviation Digital Data Service (ADDS)

Output produced by METARs form (1017 UTC 19 April 2014)
found at http://aviationweather.gov/adds/metars/
 
KAND 190859Z 1909/2006 04013G22KT P6SM -RADZ SCT008 OVC040 
     TEMPO 1910/1912 5SM -RADZ BR OVC008 
     FM191200 04014G25KT P6SM -RA OVC020 
     FM191900 04015G25KT P6SM VCSH OVC030 
     FM200300 04013G21KT P6SM OVC010